Time;durP1;ratioP1;P1;durP2;ratioP2;P2;SDS_P1;SDS_P2;PMS_P1;PMS_P2;Temp;Humidity;BMP_temperature;BMP_pressure;BME280_temperature;BME280_humidity;BME280_pressure;Samples;Min_cycle;Max_cycle;Signal;HPM_P1;HPM_P2
2024/01/20 00:02:17;;;;;;;13.43;1.23;;;;;;;;;;5086117;28;20083;-66
2024/01/20 00:04:45;;;;;;;12.20;2.33;;;;;;;;;;5078374;28;20083;-66
2024/01/20 00:07:12;;;;;;;12.95;1.27;;;;;;;;;;5076702;28;20055;-66
2024/01/20 00:09:40;;;;;;;13.43;2.20;;;;;;;;;;5079893;28;20043;-66
2024/01/20 00:12:08;;;;;;;9.32;1.13;;;;;;;;;;5056862;28;20048;-66
2024/01/20 00:14:35;;;;;;;12.63;1.45;;;;;;;;;;5066147;28;20131;-66
2024/01/20 00:17:02;;;;;;;10.73;1.83;;;;;;;;;;5083372;28;20048;-66
2024/01/20 00:19:30;;;;;;;9.13;1.52;;;;;;;;;;5079748;28;20043;-66
2024/01/20 00:21:57;;;;;;;16.65;1.80;;;;;;;;;;5081355;28;20106;-66
2024/01/20 00:24:24;;;;;;;10.90;1.38;;;;;;;;;;5076706;28;20054;-66
2024/01/20 00:26:53;;;;;;;12.52;1.60;;;;;;;;;;5058446;28;20486;-66
2024/01/20 00:29:20;;;;;;;12.43;1.75;;;;;;;;;;5080480;28;20070;-66
2024/01/20 00:31:48;;;;;;;13.40;1.65;;;;;;;;;;5059217;28;20056;-66
2024/01/20 00:34:16;;;;;;;12.52;1.95;;;;;;;;;;5087999;28;20055;-66
2024/01/20 00:36:43;;;;;;;12.30;1.95;;;;;;;;;;5061164;28;20056;-66
2024/01/20 00:39:10;;;;;;;8.88;1.75;;;;;;;;;;5075611;28;20399;-66
2024/01/20 00:41:37;;;;;;;7.97;1.48;;;;;;;;;;5086055;28;20048;-66
2024/01/20 00:44:06;;;;;;;7.63;1.02;;;;;;;;;;5072700;28;21162;-66
2024/01/20 00:46:34;;;;;;;10.05;1.90;;;;;;;;;;5077908;28;20048;-66
2024/01/20 00:49:02;;;;;;;10.15;1.50;;;;;;;;;;5084645;28;20052;-66
2024/01/20 00:51:29;;;;;;;15.52;3.33;;;;;;;;;;5078104;28;20048;-66
2024/01/20 00:53:56;;;;;;;15.68;1.65;;;;;;;;;;5072651;28;20056;-66
2024/01/20 00:56:24;;;;;;;8.65;1.27;;;;;;;;;;5072628;28;20049;-66
2024/01/20 00:58:52;;;;;;;9.48;1.20;;;;;;;;;;5077352;28;20543;-66
2024/01/20 01:01:20;;;;;;;8.80;1.35;;;;;;;;;;5056068;28;20059;-66
2024/01/20 01:03:48;;;;;;;12.27;1.45;;;;;;;;;;5076298;28;20052;-67
2024/01/20 01:06:15;;;;;;;11.88;1.42;;;;;;;;;;5071000;28;20036;-66
2024/01/20 01:08:42;;;;;;;10.57;1.58;;;;;;;;;;5061252;28;20059;-66
2024/01/20 01:11:10;;;;;;;14.98;2.03;;;;;;;;;;5075547;28;20052;-67
2024/01/20 01:13:39;;;;;;;10.70;2.10;;;;;;;;;;5077378;28;20044;-67
2024/01/20 01:16:06;;;;;;;9.77;1.42;;;;;;;;;;5076743;28;20070;-67
2024/01/20 01:18:35;;;;;;;11.43;1.58;;;;;;;;;;5055750;28;20053;-66
2024/01/20 01:21:02;;;;;;;14.93;2.28;;;;;;;;;;5080462;28;20048;-66
2024/01/20 01:23:29;;;;;;;15.38;1.67;;;;;;;;;;5076663;28;20051;-66
2024/01/20 01:25:56;;;;;;;11.23;1.92;;;;;;;;;;5076513;28;20479;-66
2024/01/20 01:28:24;;;;;;;12.55;1.58;;;;;;;;;;5075506;28;20139;-66
2024/01/20 01:30:51;;;;;;;13.45;1.88;;;;;;;;;;5072274;28;20066;-67
2024/01/20 01:33:18;;;;;;;11.93;1.73;;;;;;;;;;5076454;28;20050;-66
2024/01/20 01:35:47;;;;;;;12.35;2.17;;;;;;;;;;5073779;28;20084;-66
2024/01/20 01:38:14;;;;;;;11.63;2.35;;;;;;;;;;5075882;28;20076;-66
2024/01/20 01:40:42;;;;;;;9.55;1.40;;;;;;;;;;5076983;28;20051;-66
2024/01/20 01:43:09;;;;;;;11.80;1.88;;;;;;;;;;5076186;28;20060;-66
2024/01/20 01:45:36;;;;;;;15.73;1.70;;;;;;;;;;5077475;28;20048;-66
2024/01/20 01:48:04;;;;;;;10.48;1.80;;;;;;;;;;5076872;28;20064;-66
2024/01/20 01:50:31;;;;;;;7.68;1.23;;;;;;;;;;5072368;28;20063;-66
2024/01/20 01:53:00;;;;;;;13.80;1.45;;;;;;;;;;5073390;28;20052;-66
2024/01/20 01:55:27;;;;;;;21.88;2.75;;;;;;;;;;5078358;28;20456;-66
2024/01/20 01:57:55;;;;;;;16.52;1.55;;;;;;;;;;5084681;28;20059;-66
2024/01/20 02:00:22;;;;;;;14.35;2.10;;;;;;;;;;5074555;28;20054;-66
2024/01/20 02:02:49;;;;;;;14.10;1.80;;;;;;;;;;5085900;28;20471;-66
2024/01/20 02:05:17;;;;;;;10.85;1.65;;;;;;;;;;5080961;28;20143;-66
2024/01/20 02:07:44;;;;;;;8.27;1.45;;;;;;;;;;5083042;28;20055;-66
2024/01/20 02:10:13;;;;;;;7.07;1.38;;;;;;;;;;5080401;28;20048;-66
2024/01/20 02:12:41;;;;;;;15.10;1.63;;;;;;;;;;5076372;28;20399;-66
2024/01/20 02:15:08;;;;;;;14.40;1.90;;;;;;;;;;5076005;28;20703;-66
2024/01/20 02:17:35;;;;;;;12.07;2.03;;;;;;;;;;5080058;28;20049;-66
2024/01/20 02:20:03;;;;;;;14.63;1.40;;;;;;;;;;5074947;28;20384;-66
2024/01/20 02:22:32;;;;;;;11.90;1.92;;;;;;;;;;5077371;28;20040;-66
2024/01/20 02:24:59;;;;;;;8.95;1.48;;;;;;;;;;5081422;28;20121;-66
2024/01/20 02:27:26;;;;;;;11.02;1.70;;;;;;;;;;5078267;28;20075;-66
2024/01/20 02:29:53;;;;;;;15.27;1.48;;;;;;;;;;5083066;28;20052;-66
2024/01/20 02:32:21;;;;;;;7.60;1.60;;;;;;;;;;5086289;28;20039;-66
2024/01/20 02:34:48;;;;;;;8.98;1.75;;;;;;;;;;5061462;28;20048;-66
2024/01/20 02:37:15;;;;;;;9.48;1.58;;;;;;;;;;5080036;28;20407;-67
2024/01/20 02:39:45;;;;;;;10.73;1.65;;;;;;;;;;5070720;28;20045;-66
2024/01/20 02:42:12;;;;;;;10.98;2.95;;;;;;;;;;5074309;28;20048;-66
2024/01/20 02:44:39;;;;;;;17.55;2.17;;;;;;;;;;5074548;28;20052;-66
2024/01/20 02:47:07;;;;;;;13.65;2.53;;;;;;;;;;5079244;28;20040;-66
2024/01/20 02:49:34;;;;;;;15.02;1.80;;;;;;;;;;5072633;28;20061;-66
2024/01/20 02:52:01;;;;;;;11.38;2.08;;;;;;;;;;5083459;28;20040;-66
2024/01/20 02:54:29;;;;;;;15.75;2.53;;;;;;;;;;5083268;28;20048;-66
2024/01/20 02:56:57;;;;;;;14.30;1.80;;;;;;;;;;5071560;28;20501;-66
2024/01/20 02:59:25;;;;;;;11.25;2.22;;;;;;;;;;5077019;28;20777;-66
2024/01/20 03:01:52;;;;;;;18.90;2.50;;;;;;;;;;5078134;28;20056;-66
2024/01/20 03:04:19;;;;;;;18.17;2.70;;;;;;;;;;5070610;28;20086;-66
2024/01/20 03:06:47;;;;;;;12.05;2.20;;;;;;;;;;5077052;28;20040;-66
2024/01/20 03:09:14;;;;;;;15.75;2.25;;;;;;;;;;5065028;28;20158;-66
2024/01/20 03:11:42;;;;;;;9.77;1.50;;;;;;;;;;5079033;28;20097;-66
2024/01/20 03:14:11;;;;;;;11.68;1.95;;;;;;;;;;5081612;28;20445;-66
2024/01/20 03:16:39;;;;;;;17.42;2.20;;;;;;;;;;5080368;28;20045;-66
2024/01/20 03:19:06;;;;;;;13.90;1.77;;;;;;;;;;5081677;28;20052;-66
2024/01/20 03:21:34;;;;;;;14.55;2.45;;;;;;;;;;5076141;28;20044;-66
2024/01/20 03:24:01;;;;;;;21.75;4.72;;;;;;;;;;5080663;28;20573;-67
2024/01/20 03:26:28;;;;;;;18.85;1.85;;;;;;;;;;5077343;28;20044;-66
2024/01/20 03:28:56;;;;;;;16.90;2.55;;;;;;;;;;5077727;28;20135;-66
2024/01/20 03:31:25;;;;;;;13.05;2.00;;;;;;;;;;5079999;28;20075;-66
2024/01/20 03:33:52;;;;;;;8.27;2.42;;;;;;;;;;5077149;28;20127;-66
2024/01/20 03:36:20;;;;;;;13.57;2.10;;;;;;;;;;5071287;28;20083;-67
2024/01/20 03:38:47;;;;;;;16.88;2.47;;;;;;;;;;5071949;28;20055;-66
2024/01/20 03:41:14;;;;;;;9.20;1.58;;;;;;;;;;5083200;28;20475;-66
2024/01/20 03:43:41;;;;;;;14.05;1.88;;;;;;;;;;5080669;28;20127;-66
2024/01/20 03:46:09;;;;;;;19.77;1.83;;;;;;;;;;5064969;28;20158;-66
2024/01/20 03:48:37;;;;;;;17.70;2.60;;;;;;;;;;5079360;28;20156;-66
2024/01/20 03:51:04;;;;;;;10.48;1.70;;;;;;;;;;5061272;28;20496;-65
2024/01/20 03:53:32;;;;;;;9.95;1.42;;;;;;;;;;5079017;28;20045;-66
2024/01/20 03:55:59;;;;;;;9.10;1.95;;;;;;;;;;5055940;28;20140;-66
2024/01/20 03:58:26;;;;;;;7.97;1.33;;;;;;;;;;5080604;28;20379;-66
2024/01/20 04:00:54;;;;;;;7.55;2.05;;;;;;;;;;5058861;28;20056;-66
2024/01/20 04:03:21;;;;;;;11.20;1.60;;;;;;;;;;5072961;28;20041;-66
2024/01/20 04:05:50;;;;;;;11.13;1.70;;;;;;;;;;5073326;28;20497;-66
2024/01/20 04:08:17;;;;;;;11.25;1.98;;;;;;;;;;5080325;28;20047;-66
2024/01/20 04:10:44;;;;;;;8.82;1.30;;;;;;;;;;5075328;28;20055;-67
2024/01/20 04:13:12;;;;;;;18.83;1.90;;;;;;;;;;5079038;28;20051;-66
2024/01/20 04:15:39;;;;;;;7.65;1.38;;;;;;;;;;5076831;28;20403;-66
2024/01/20 04:18:06;;;;;;;12.32;1.98;;;;;;;;;;5079855;28;20472;-66
2024/01/20 04:20:33;;;;;;;17.73;2.47;;;;;;;;;;5082903;28;20043;-66
2024/01/20 04:23:02;;;;;;;14.98;1.75;;;;;;;;;;5084877;28;20055;-66
2024/01/20 04:25:29;;;;;;;10.10;1.77;;;;;;;;;;5086195;28;20040;-67
2024/01/20 04:27:56;;;;;;;12.80;2.47;;;;;;;;;;5081765;28;20510;-67
2024/01/20 04:30:24;;;;;;;12.40;3.80;;;;;;;;;;5079516;28;20048;-66
2024/01/20 04:32:51;;;;;;;11.20;3.67;;;;;;;;;;5085253;28;20052;-66
2024/01/20 04:35:18;;;;;;;11.98;3.42;;;;;;;;;;5077461;28;20045;-66
2024/01/20 04:37:45;;;;;;;10.43;3.15;;;;;;;;;;5080859;28;20424;-66
2024/01/20 04:40:14;;;;;;;13.18;3.47;;;;;;;;;;5072637;28;20044;-66
2024/01/20 04:42:41;;;;;;;9.23;3.30;;;;;;;;;;5075284;28;20060;-66
2024/01/20 04:45:11;;;;;;;8.77;3.17;;;;;;;;;;5080865;28;20048;-67
2024/01/20 04:47:38;;;;;;;19.85;3.00;;;;;;;;;;5076472;28;20040;-66
2024/01/20 04:50:06;;;;;;;13.80;3.20;;;;;;;;;;5079309;28;20518;-66
2024/01/20 04:52:33;;;;;;;12.07;2.95;;;;;;;;;;5063981;28;20056;-66
2024/01/20 04:55:00;;;;;;;11.38;3.30;;;;;;;;;;5079779;28;20052;-66
2024/01/20 04:57:29;;;;;;;10.73;2.78;;;;;;;;;;5080823;28;20044;-66
2024/01/20 04:59:56;;;;;;;12.27;2.72;;;;;;;;;;5072827;28;20053;-66
2024/01/20 05:02:23;;;;;;;16.48;2.65;;;;;;;;;;5074298;28;20052;-66
2024/01/20 05:04:51;;;;;;;8.40;2.42;;;;;;;;;;5075964;28;20507;-67
2024/01/20 05:07:18;;;;;;;15.05;2.60;;;;;;;;;;5081677;28;20554;-66
2024/01/20 05:09:46;;;;;;;13.90;2.83;;;;;;;;;;5071044;28;20056;-66
2024/01/20 05:12:13;;;;;;;13.80;2.55;;;;;;;;;;5078904;28;20466;-66
2024/01/20 05:14:42;;;;;;;9.52;3.20;;;;;;;;;;5082369;28;20052;-66
2024/01/20 05:17:09;;;;;;;12.02;2.30;;;;;;;;;;5073373;28;20048;-66
2024/01/20 05:19:39;;;;;;;10.52;1.88;;;;;;;;;;5080447;28;20170;-66
2024/01/20 05:22:07;;;;;;;16.23;2.75;;;;;;;;;;5065747;28;20122;-66
2024/01/20 05:24:34;;;;;;;14.80;2.40;;;;;;;;;;5079579;28;20050;-66
2024/01/20 05:27:01;;;;;;;13.05;2.20;;;;;;;;;;5081038;28;20048;-67
2024/01/20 05:29:29;;;;;;;5.97;1.60;;;;;;;;;;5083488;28;20047;-66
2024/01/20 05:31:57;;;;;;;9.23;2.80;;;;;;;;;;5082592;28;20044;-66
2024/01/20 05:34:24;;;;;;;9.45;3.40;;;;;;;;;;5076080;28;20044;-67
2024/01/20 05:36:52;;;;;;;9.77;3.70;;;;;;;;;;5079949;28;20131;-66
2024/01/20 05:39:19;;;;;;;14.45;3.85;;;;;;;;;;5078719;28;20403;-66
2024/01/20 05:41:46;;;;;;;10.63;4.18;;;;;;;;;;5072808;28;20048;-66
2024/01/20 05:44:14;;;;;;;15.13;4.40;;;;;;;;;;5067226;28;20256;-66
2024/01/20 05:46:41;;;;;;;16.95;4.55;;;;;;;;;;5075713;28;20055;-66
2024/01/20 05:49:10;;;;;;;14.75;3.83;;;;;;;;;;5075539;28;20055;-66
2024/01/20 05:51:37;;;;;;;10.77;3.70;;;;;;;;;;5074431;28;20040;-66
2024/01/20 05:54:04;;;;;;;18.20;4.10;;;;;;;;;;5076722;28;20060;-66
2024/01/20 05:56:32;;;;;;;19.95;3.80;;;;;;;;;;5077410;28;20523;-66
2024/01/20 05:58:59;;;;;;;12.15;3.22;;;;;;;;;;5076192;28;20056;-66
2024/01/20 06:01:26;;;;;;;12.48;3.17;;;;;;;;;;5072408;28;20113;-66
2024/01/20 06:03:53;;;;;;;10.40;2.95;;;;;;;;;;5075643;28;20049;-66
2024/01/20 06:06:22;;;;;;;11.23;3.05;;;;;;;;;;5060539;28;20087;-66
2024/01/20 06:08:49;;;;;;;16.33;3.00;;;;;;;;;;5070248;28;20486;-66
2024/01/20 06:11:17;;;;;;;11.07;2.72;;;;;;;;;;5077812;28;20044;-66
2024/01/20 06:13:44;;;;;;;9.57;2.35;;;;;;;;;;5078830;28;20047;-66
2024/01/20 06:16:13;;;;;;;10.45;2.05;;;;;;;;;;5085204;28;20123;-66
2024/01/20 06:18:40;;;;;;;13.35;2.63;;;;;;;;;;5078008;28;20098;-66
2024/01/20 06:21:08;;;;;;;10.82;2.10;;;;;;;;;;5080023;28;20086;-66
2024/01/20 06:23:36;;;;;;;8.63;1.90;;;;;;;;;;5084360;28;20119;-67
2024/01/20 06:26:04;;;;;;;16.73;1.92;;;;;;;;;;5081625;28;20056;-66
2024/01/20 06:28:31;;;;;;;7.82;2.35;;;;;;;;;;5072731;28;20048;-65
2024/01/20 06:30:59;;;;;;;14.23;5.45;;;;;;;;;;5077649;28;20045;-64
2024/01/20 06:33:26;;;;;;;13.35;5.40;;;;;;;;;;5076644;28;20419;-63
2024/01/20 06:35:54;;;;;;;16.50;6.65;;;;;;;;;;5077767;28;20052;-63
2024/01/20 06:38:21;;;;;;;12.95;6.28;;;;;;;;;;5076515;28;20044;-64
2024/01/20 06:40:49;;;;;;;14.02;6.95;;;;;;;;;;5077604;28;20051;-64
2024/01/20 06:43:17;;;;;;;17.73;7.45;;;;;;;;;;5077109;28;20056;-63
2024/01/20 06:45:45;;;;;;;18.50;5.50;;;;;;;;;;5057458;28;20492;-64
2024/01/20 06:48:13;;;;;;;14.48;5.63;;;;;;;;;;5076648;28;20135;-64
2024/01/20 06:50:43;;;;;;;15.55;5.40;;;;;;;;;;5077383;28;20494;-64
2024/01/20 06:53:11;;;;;;;17.02;4.95;;;;;;;;;;5058085;28;20058;-64
2024/01/20 06:55:38;;;;;;;13.40;5.40;;;;;;;;;;5073026;28;20044;-64
2024/01/20 06:58:07;;;;;;;14.27;4.20;;;;;;;;;;5073739;28;20051;-64
2024/01/20 07:00:34;;;;;;;13.85;4.25;;;;;;;;;;5077644;28;20048;-64
2024/01/20 07:03:02;;;;;;;12.13;3.53;;;;;;;;;;5078563;28;20060;-64
2024/01/20 07:05:30;;;;;;;11.05;3.45;;;;;;;;;;5074867;28;20056;-64
2024/01/20 07:07:57;;;;;;;14.00;3.08;;;;;;;;;;5080897;28;20131;-64
2024/01/20 07:10:24;;;;;;;15.90;2.30;;;;;;;;;;5076852;28;20387;-63
2024/01/20 07:12:51;;;;;;;15.02;1.95;;;;;;;;;;5072464;28;20110;-64
2024/01/20 07:15:20;;;;;;;8.90;2.70;;;;;;;;;;5077155;28;21246;-64
2024/01/20 07:17:48;;;;;;;11.13;2.50;;;;;;;;;;5076045;28;20440;-63
2024/01/20 07:20:15;;;;;;;9.52;3.20;;;;;;;;;;5074584;28;20097;-64
2024/01/20 07:22:44;;;;;;;9.02;2.85;;;;;;;;;;5062008;28;20079;-64
2024/01/20 07:25:11;;;;;;;8.73;2.97;;;;;;;;;;5075599;28;20131;-63
2024/01/20 07:27:39;;;;;;;12.48;2.50;;;;;;;;;;5081398;28;20051;-63
2024/01/20 07:30:07;;;;;;;20.00;3.17;;;;;;;;;;5079096;28;20230;-63
2024/01/20 07:32:35;;;;;;;17.23;3.55;;;;;;;;;;5080601;28;20048;-63
2024/01/20 07:35:03;;;;;;;11.90;3.55;;;;;;;;;;5081875;28;20127;-62
2024/01/20 07:37:31;;;;;;;12.05;3.83;;;;;;;;;;5081369;28;20101;-63
2024/01/20 07:39:57;;;;;;;13.05;4.03;;;;;;;;;;5081659;28;20048;-62
2024/01/20 07:42:24;;;;;;;13.43;4.30;;;;;;;;;;5078545;28;20078;-63
2024/01/20 07:44:51;;;;;;;9.32;4.70;;;;;;;;;;5081164;28;20078;-63
2024/01/20 07:47:18;;;;;;;11.65;5.97;;;;;;;;;;5081611;28;20055;-63
2024/01/20 07:49:47;;;;;;;20.85;8.23;;;;;;;;;;5082734;28;20052;-62
2024/01/20 07:52:14;;;;;;;31.35;11.95;;;;;;;;;;5076146;28;20400;-63
2024/01/20 07:54:41;;;;;;;31.23;12.98;;;;;;;;;;5072478;28;20051;-64
2024/01/20 07:57:09;;;;;;;32.85;13.57;;;;;;;;;;5074274;28;20052;-63
2024/01/20 07:59:36;;;;;;;30.67;12.95;;;;;;;;;;5071121;28;20048;-62
2024/01/20 08:02:04;;;;;;;35.63;13.80;;;;;;;;;;5073489;28;20055;-63
2024/01/20 08:04:32;;;;;;;32.08;14.00;;;;;;;;;;5081355;28;20064;-64
2024/01/20 08:07:01;;;;;;;32.05;13.60;;;;;;;;;;5082450;28;20435;-63
2024/01/20 08:09:28;;;;;;;37.38;16.20;;;;;;;;;;5086228;28;20494;-62
2024/01/20 08:11:55;;;;;;;34.88;14.73;;;;;;;;;;5083297;28;20051;-63
2024/01/20 08:14:23;;;;;;;38.90;14.95;;;;;;;;;;5079273;28;20071;-62
2024/01/20 08:16:50;;;;;;;38.92;16.17;;;;;;;;;;5087585;28;20047;-63
2024/01/20 08:19:17;;;;;;;37.13;15.65;;;;;;;;;;5082272;28;20040;-62
2024/01/20 08:21:44;;;;;;;42.97;18.73;;;;;;;;;;5088410;28;20044;-62
2024/01/20 08:24:13;;;;;;;41.22;18.45;;;;;;;;;;5076880;28;20075;-62
2024/01/20 08:26:41;;;;;;;35.67;16.23;;;;;;;;;;5075487;28;20044;-62
2024/01/20 08:29:09;;;;;;;39.05;19.35;;;;;;;;;;5080973;28;20063;-62
2024/01/20 08:31:36;;;;;;;41.63;17.85;;;;;;;;;;5079263;28;20075;-62
2024/01/20 08:34:03;;;;;;;44.72;20.13;;;;;;;;;;5080132;28;20053;-62
2024/01/20 08:36:31;;;;;;;51.15;22.85;;;;;;;;;;5084157;28;20076;-63
2024/01/20 08:38:58;;;;;;;52.75;21.58;;;;;;;;;;5086360;28;20044;-62
2024/01/20 08:41:27;;;;;;;45.90;20.48;;;;;;;;;;5079466;28;20048;-62
2024/01/20 08:43:54;;;;;;;47.50;20.35;;;;;;;;;;5077934;28;20044;-62
2024/01/20 08:46:21;;;;;;;53.47;22.20;;;;;;;;;;5084563;28;20507;-63
2024/01/20 08:48:48;;;;;;;46.08;20.80;;;;;;;;;;5077458;28;20048;-63
2024/01/20 08:51:16;;;;;;;43.97;21.25;;;;;;;;;;5071637;28;20067;-63
2024/01/20 08:53:43;;;;;;;45.25;19.83;;;;;;;;;;5073921;28;20048;-63
2024/01/20 08:56:10;;;;;;;46.75;19.38;;;;;;;;;;5080090;28;21144;-64
2024/01/20 08:58:39;;;;;;;47.00;20.83;;;;;;;;;;5074285;28;20061;-63
2024/01/20 09:01:07;;;;;;;59.45;21.25;;;;;;;;;;5082662;28;20055;-63
2024/01/20 09:03:34;;;;;;;47.45;19.48;;;;;;;;;;5074999;28;20056;-63
2024/01/20 09:06:02;;;;;;;45.45;19.60;;;;;;;;;;5073055;28;20590;-63
2024/01/20 09:08:29;;;;;;;45.58;19.00;;;;;;;;;;5079501;28;20048;-63
2024/01/20 09:10:58;;;;;;;48.03;22.30;;;;;;;;;;5084832;28;20049;-63
2024/01/20 09:13:25;;;;;;;48.00;20.88;;;;;;;;;;5078280;28;20052;-62
2024/01/20 09:15:54;;;;;;;48.88;18.58;;;;;;;;;;5080921;28;20052;-63
2024/01/20 09:18:21;;;;;;;49.40;19.98;;;;;;;;;;5057452;28;20727;-63
2024/01/20 09:20:48;;;;;;;61.90;22.23;;;;;;;;;;5071069;28;20049;-64
2024/01/20 09:23:16;;;;;;;45.50;21.83;;;;;;;;;;5075479;28;20725;-62
2024/01/20 09:25:44;;;;;;;50.10;20.67;;;;;;;;;;5075712;28;20407;-62
2024/01/20 09:28:11;;;;;;;41.50;18.27;;;;;;;;;;5059102;28;20079;-63
2024/01/20 09:30:39;;;;;;;48.38;19.85;;;;;;;;;;5076684;28;20071;-62
2024/01/20 09:33:07;;;;;;;42.47;19.20;;;;;;;;;;5077870;28;20050;-62
2024/01/20 09:35:34;;;;;;;43.33;18.23;;;;;;;;;;5077623;28;20124;-61
2024/01/20 09:38:03;;;;;;;51.60;18.13;;;;;;;;;;5076660;28;20059;-62
2024/01/20 09:40:32;;;;;;;45.63;19.13;;;;;;;;;;5074154;28;20045;-62
2024/01/20 09:43:02;;;;;;;44.15;19.88;;;;;;;;;;5071525;28;20148;-62
2024/01/20 09:45:29;;;;;;;46.72;18.80;;;;;;;;;;5055823;28;20380;-62
2024/01/20 09:47:56;;;;;;;49.95;21.55;;;;;;;;;;5078952;28;20182;-63
2024/01/20 09:50:25;;;;;;;45.53;18.27;;;;;;;;;;5075370;28;20058;-63
2024/01/20 09:52:58;;;;;;;48.72;19.92;;;;;;;;;;5085388;28;20108;-62
2024/01/20 09:55:27;;;;;;;52.65;19.85;;;;;;;;;;5081528;28;20052;-63
2024/01/20 09:57:55;;;;;;;51.00;21.05;;;;;;;;;;5082395;28;20567;-62
2024/01/20 10:00:23;;;;;;;45.17;20.15;;;;;;;;;;5079680;28;20044;-62
2024/01/20 10:02:50;;;;;;;42.55;19.38;;;;;;;;;;5068295;28;20103;-63
2024/01/20 10:05:18;;;;;;;51.08;18.05;;;;;;;;;;5074416;28;20048;-62
2024/01/20 10:07:46;;;;;;;47.88;19.15;;;;;;;;;;5079462;28;20403;-62
2024/01/20 10:10:21;;;;;;;49.75;19.08;;;;;;;;;;5073330;28;20511;-63
2024/01/20 10:12:50;;;;;;;49.53;18.25;;;;;;;;;;5074852;28;20476;-63
2024/01/20 10:15:17;;;;;;;45.20;18.90;;;;;;;;;;5081695;28;20048;-62
2024/01/20 10:17:44;;;;;;;49.50;19.73;;;;;;;;;;5074524;28;20044;-63
2024/01/20 10:20:19;;;;;;;41.63;19.13;;;;;;;;;;5073293;28;20526;-62
2024/01/20 10:22:48;;;;;;;51.75;20.17;;;;;;;;;;5072017;28;20044;-63
2024/01/20 10:25:19;;;;;;;51.60;20.15;;;;;;;;;;5075848;28;20480;-62
2024/01/20 10:27:46;;;;;;;52.30;21.38;;;;;;;;;;5074701;28;20056;-62
2024/01/20 10:30:14;;;;;;;52.85;20.73;;;;;;;;;;5063321;28;20080;-63
2024/01/20 10:32:42;;;;;;;45.10;19.42;;;;;;;;;;5078952;28;20044;-63
2024/01/20 10:35:09;;;;;;;45.80;18.73;;;;;;;;;;5051486;28;20056;-62
2024/01/20 10:37:38;;;;;;;51.90;20.73;;;;;;;;;;5072471;28;20059;-63
2024/01/20 10:40:10;;;;;;;48.30;17.75;;;;;;;;;;5059473;28;20701;-63
2024/01/20 10:42:41;;;;;;;47.28;18.52;;;;;;;;;;5077596;28;20044;-63
2024/01/20 10:45:10;;;;;;;41.88;19.02;;;;;;;;;;5074338;28;20052;-63
2024/01/20 10:47:38;;;;;;;42.00;17.75;;;;;;;;;;5076497;28;20099;-63
2024/01/20 10:50:07;;;;;;;38.88;16.52;;;;;;;;;;5076328;28;20045;-63
2024/01/20 10:52:34;;;;;;;39.65;15.50;;;;;;;;;;5078413;28;20060;-62
2024/01/20 10:55:02;;;;;;;39.60;16.00;;;;;;;;;;5081058;28;20056;-63
2024/01/20 10:57:31;;;;;;;38.10;14.35;;;;;;;;;;5071035;28;20048;-62
2024/01/20 10:59:59;;;;;;;29.42;12.98;;;;;;;;;;5076582;28;20040;-63
2024/01/20 11:02:27;;;;;;;43.28;16.33;;;;;;;;;;5070789;28;20059;-63
2024/01/20 11:04:55;;;;;;;41.08;16.75;;;;;;;;;;5072237;28;20067;-62
2024/01/20 11:07:23;;;;;;;42.58;16.13;;;;;;;;;;5083063;28;20525;-62
2024/01/20 11:09:57;;;;;;;45.83;18.58;;;;;;;;;;5076692;28;20052;-63
2024/01/20 11:12:24;;;;;;;39.45;17.42;;;;;;;;;;5056045;28;20127;-62
2024/01/20 11:14:53;;;;;;;50.17;16.95;;;;;;;;;;5081633;28;20048;-63
2024/01/20 11:17:21;;;;;;;40.20;16.00;;;;;;;;;;5070726;28;20048;-62
2024/01/20 11:19:48;;;;;;;47.55;19.20;;;;;;;;;;5076408;28;20116;-63
2024/01/20 11:22:32;;;;;;;49.15;17.55;;;;;;;;;;5083595;28;20052;-62
2024/01/20 11:25:03;;;;;;;48.13;18.40;;;;;;;;;;5075848;28;20055;-62
2024/01/20 11:27:30;;;;;;;46.15;16.70;;;;;;;;;;5082118;28;20097;-62
2024/01/20 11:30:06;;;;;;;46.97;19.88;;;;;;;;;;5083674;28;20062;-62
2024/01/20 11:32:34;;;;;;;51.60;19.88;;;;;;;;;;5078336;28;20041;-63
2024/01/20 11:35:01;;;;;;;46.53;19.98;;;;;;;;;;5075686;28;20052;-62
2024/01/20 11:37:29;;;;;;;48.60;18.17;;;;;;;;;;5054593;28;20048;-62
2024/01/20 11:40:05;;;;;;;47.58;17.58;;;;;;;;;;5078051;28;20540;-62
2024/01/20 11:42:33;;;;;;;43.22;17.70;;;;;;;;;;5077546;28;20052;-62
2024/01/20 11:45:01;;;;;;;45.15;17.65;;;;;;;;;;5080119;28;20546;-62
2024/01/20 11:47:30;;;;;;;40.15;17.40;;;;;;;;;;5078920;28;20052;-62
2024/01/20 11:49:58;;;;;;;46.45;19.30;;;;;;;;;;5074836;28;20390;-62
2024/01/20 11:52:25;;;;;;;40.95;20.27;;;;;;;;;;5070022;28;20415;-63
2024/01/20 11:54:53;;;;;;;40.38;17.15;;;;;;;;;;5074624;28;20096;-63
2024/01/20 11:57:21;;;;;;;38.28;15.70;;;;;;;;;;5072400;28;20045;-62
2024/01/20 11:59:48;;;;;;;46.08;17.10;;;;;;;;;;5063090;28;20048;-62
2024/01/20 12:02:16;;;;;;;45.60;18.27;;;;;;;;;;5079580;28;20048;-62
2024/01/20 12:04:45;;;;;;;41.15;17.95;;;;;;;;;;5066653;28;20052;-62
2024/01/20 12:07:12;;;;;;;42.67;17.67;;;;;;;;;;5080525;28;20105;-63
2024/01/20 12:09:39;;;;;;;37.28;16.73;;;;;;;;;;5076007;28;20471;-63
2024/01/20 12:12:07;;;;;;;49.08;17.58;;;;;;;;;;5075263;28;20066;-62
2024/01/20 12:14:34;;;;;;;33.55;16.38;;;;;;;;;;5078972;28;20044;-62
2024/01/20 12:17:02;;;;;;;40.63;17.02;;;;;;;;;;5080192;28;20052;-62
2024/01/20 12:19:31;;;;;;;40.63;16.35;;;;;;;;;;5081712;28;20457;-63
2024/01/20 12:22:00;;;;;;;33.08;16.45;;;;;;;;;;5079517;28;20105;-62
2024/01/20 12:24:28;;;;;;;34.30;15.07;;;;;;;;;;5080284;28;20127;-62
2024/01/20 12:26:55;;;;;;;38.42;15.63;;;;;;;;;;5086687;28;20371;-63
2024/01/20 12:29:22;;;;;;;49.90;18.88;;;;;;;;;;5070574;28;20155;-62
2024/01/20 12:31:50;;;;;;;40.83;16.92;;;;;;;;;;5083030;28;20044;-63
2024/01/20 12:34:18;;;;;;;31.75;14.45;;;;;;;;;;5082504;28;20054;-62
2024/01/20 12:36:45;;;;;;;33.80;14.93;;;;;;;;;;5086820;28;20123;-62
2024/01/20 12:39:15;;;;;;;31.25;14.68;;;;;;;;;;5064774;28;20082;-63
2024/01/20 12:41:42;;;;;;;35.55;15.10;;;;;;;;;;5077201;28;20596;-62
2024/01/20 12:44:10;;;;;;;36.35;15.68;;;;;;;;;;5078756;28;20040;-62
2024/01/20 12:46:37;;;;;;;37.03;14.98;;;;;;;;;;5079271;28;20127;-63
2024/01/20 12:49:04;;;;;;;32.15;13.70;;;;;;;;;;5073365;28;20055;-63
2024/01/20 12:51:32;;;;;;;33.75;13.50;;;;;;;;;;5078788;28;20051;-63
2024/01/20 12:53:59;;;;;;;32.92;14.32;;;;;;;;;;5056507;28;20063;-62
2024/01/20 12:56:28;;;;;;;29.90;14.15;;;;;;;;;;5074676;28;20048;-62
2024/01/20 12:58:56;;;;;;;31.38;14.02;;;;;;;;;;5086231;28;20509;-64
2024/01/20 13:01:24;;;;;;;51.75;14.50;;;;;;;;;;5083810;28;20398;-62
2024/01/20 13:03:52;;;;;;;29.27;13.43;;;;;;;;;;5080938;28;20048;-64
2024/01/20 13:06:19;;;;;;;28.55;12.95;;;;;;;;;;5076450;28;20135;-62
2024/01/20 13:08:46;;;;;;;30.77;13.27;;;;;;;;;;5082013;28;20093;-62
2024/01/20 13:11:14;;;;;;;29.70;10.95;;;;;;;;;;5088197;28;20070;-63
2024/01/20 13:13:43;;;;;;;35.47;13.52;;;;;;;;;;5056210;28;20075;-62
2024/01/20 13:16:10;;;;;;;29.73;13.57;;;;;;;;;;5074305;28;20087;-62
2024/01/20 13:18:38;;;;;;;29.50;11.93;;;;;;;;;;5078496;28;20049;-63
2024/01/20 13:21:05;;;;;;;26.92;11.43;;;;;;;;;;5080378;28;20534;-64
2024/01/20 13:23:32;;;;;;;23.85;11.32;;;;;;;;;;5060406;28;20045;-62
2024/01/20 13:26:00;;;;;;;29.38;12.00;;;;;;;;;;5077869;28;20055;-62
2024/01/20 13:28:29;;;;;;;27.30;12.02;;;;;;;;;;5074021;28;20040;-62
2024/01/20 13:30:57;;;;;;;29.77;12.57;;;;;;;;;;5084763;28;20501;-63
2024/01/20 13:33:25;;;;;;;41.22;13.02;;;;;;;;;;5078212;28;20052;-63
2024/01/20 13:35:52;;;;;;;29.63;12.63;;;;;;;;;;5085028;28;20044;-62
2024/01/20 13:38:20;;;;;;;25.10;11.48;;;;;;;;;;5080325;28;20505;-62
2024/01/20 13:40:47;;;;;;;23.17;11.05;;;;;;;;;;5080793;28;20055;-62
2024/01/20 13:43:14;;;;;;;24.00;11.05;;;;;;;;;;5084194;28;20055;-62
2024/01/20 13:45:42;;;;;;;25.73;11.23;;;;;;;;;;5079616;28;20044;-63
2024/01/20 13:48:11;;;;;;;23.73;10.63;;;;;;;;;;5072807;28;20053;-62
2024/01/20 13:50:38;;;;;;;24.35;10.35;;;;;;;;;;5073966;28;20056;-62
2024/01/20 13:53:05;;;;;;;26.92;11.60;;;;;;;;;;5073643;28;20055;-63
2024/01/20 13:55:33;;;;;;;26.65;10.60;;;;;;;;;;5083538;28;20053;-62
2024/01/20 13:58:00;;;;;;;26.77;11.50;;;;;;;;;;5057900;28;20048;-62
2024/01/20 14:00:27;;;;;;;26.48;10.38;;;;;;;;;;5074391;28;20506;-62
2024/01/20 14:02:54;;;;;;;31.17;11.20;;;;;;;;;;5078697;28;20050;-63
2024/01/20 14:05:23;;;;;;;25.00;10.48;;;;;;;;;;5072078;28;20048;-62
2024/01/20 14:07:50;;;;;;;18.70;9.35;;;;;;;;;;5079368;28;20063;-62
2024/01/20 14:10:17;;;;;;;20.23;9.55;;;;;;;;;;5079820;28;20040;-62
2024/01/20 14:12:44;;;;;;;23.75;10.05;;;;;;;;;;5075224;28;20044;-62
2024/01/20 14:15:11;;;;;;;22.95;10.65;;;;;;;;;;5055437;28;20047;-62
2024/01/20 14:17:38;;;;;;;21.45;10.70;;;;;;;;;;5078460;28;20059;-63
2024/01/20 14:20:06;;;;;;;24.35;11.27;;;;;;;;;;5074374;28;20083;-63
2024/01/20 14:22:35;;;;;;;23.85;10.25;;;;;;;;;;5070700;28;20056;-63
2024/01/20 14:25:03;;;;;;;31.80;10.90;;;;;;;;;;5082109;28;20409;-62
2024/01/20 14:27:30;;;;;;;24.83;10.23;;;;;;;;;;5080176;28;20105;-62
2024/01/20 14:29:57;;;;;;;24.25;10.70;;;;;;;;;;5078930;28;20076;-62